createdAt,value
2017-03-26T00:00:06.252Z,0.00
2017-03-26T00:01:01.237Z,0.00
2017-03-26T00:01:56.350Z,0.00
2017-03-26T00:02:50.369Z,0.00
2017-03-26T00:03:44.379Z,0.00
2017-03-26T00:04:38.467Z,0.00
2017-03-26T00:05:26.456Z,0.00
2017-03-26T00:06:15.507Z,0.00
2017-03-26T00:07:09.612Z,0.00
2017-03-26T00:08:09.560Z,0.00
2017-03-26T00:08:57.616Z,0.00
2017-03-26T00:09:52.568Z,0.00
2017-03-26T00:10:52.557Z,0.00
2017-03-26T00:11:46.699Z,0.00
2017-03-26T00:12:41.659Z,0.00
2017-03-26T00:13:35.752Z,0.00
2017-03-26T00:14:31.271Z,0.00
2017-03-26T00:15:25.831Z,0.00
2017-03-26T00:16:20.074Z,0.00
2017-03-26T00:17:14.827Z,0.00
2017-03-26T00:18:08.870Z,0.00
2017-03-26T00:19:08.932Z,0.00
2017-03-26T00:20:03.936Z,0.00
2017-03-26T00:20:59.104Z,0.00
2017-03-26T00:21:52.959Z,0.00
2017-03-26T00:22:47.008Z,0.00
2017-03-26T00:23:41.061Z,0.00
2017-03-26T00:24:36.016Z,0.00
2017-03-26T00:25:25.070Z,0.00
2017-03-26T00:26:26.185Z,0.00
2017-03-26T00:27:26.140Z,0.00
2017-03-26T00:28:20.275Z,0.00
2017-03-26T00:29:15.208Z,0.00
2017-03-26T00:30:03.194Z,0.00
2017-03-26T00:30:52.310Z,0.00
2017-03-26T00:31:46.401Z,0.00
2017-03-26T00:32:47.374Z,0.00
2017-03-26T00:33:36.328Z,0.00
2017-03-26T00:34:25.474Z,0.00
2017-03-26T00:35:19.422Z,0.00
2017-03-26T00:36:19.405Z,0.00
2017-03-26T00:37:13.622Z,0.00
2017-03-26T00:38:13.544Z,0.00
2017-03-26T00:39:07.608Z,0.00
2017-03-26T00:40:07.593Z,0.00
2017-03-26T00:41:07.532Z,0.00
2017-03-26T00:42:02.635Z,0.00
2017-03-26T00:42:51.666Z,0.00
2017-03-26T00:43:46.732Z,0.00
2017-03-26T00:44:46.690Z,0.00
2017-03-26T00:45:41.736Z,0.00
2017-03-26T00:46:36.862Z,0.00
2017-03-26T00:47:36.739Z,0.00
2017-03-26T00:48:31.996Z,0.00
2017-03-26T00:49:25.874Z,0.00
2017-03-26T00:50:20.897Z,0.00
2017-03-26T00:51:15.976Z,0.00
2017-03-26T00:52:10.030Z,0.00
2017-03-26T00:53:09.954Z,0.00
2017-03-26T00:54:04.190Z,0.00
2017-03-26T00:55:04.139Z,0.00
2017-03-26T00:55:59.115Z,0.00
2017-03-26T00:56:54.122Z,0.00
2017-03-26T00:57:54.126Z,0.00
2017-03-26T00:58:43.202Z,0.00
2017-03-26T00:59:44.228Z,0.00
2017-03-26T01:00:39.220Z,0.00
2017-03-26T01:01:34.273Z,0.00
2017-03-26T01:02:34.306Z,0.00
2017-03-26T01:03:23.359Z,0.00
2017-03-26T01:04:18.369Z,0.00
2017-03-26T01:05:12.518Z,0.00
2017-03-26T01:06:07.384Z,0.00
2017-03-26T01:06:56.473Z,0.00
2017-03-26T01:07:50.446Z,0.00
2017-03-26T01:08:56.447Z,0.00
2017-03-26T01:09:56.591Z,0.00
2017-03-26T01:10:45.600Z,0.00
2017-03-26T01:11:40.556Z,0.00
2017-03-26T01:12:34.710Z,0.00
2017-03-26T01:13:29.657Z,0.00
2017-03-26T01:14:18.663Z,0.00
2017-03-26T01:15:12.694Z,0.00
2017-03-26T01:16:13.775Z,0.00
2017-03-26T01:17:08.790Z,0.00
2017-03-26T01:18:02.734Z,0.00
2017-03-26T01:19:02.849Z,0.00
2017-03-26T01:19:57.851Z,0.00
2017-03-26T01:20:46.892Z,0.00
2017-03-26T01:21:41.934Z,0.00
2017-03-26T01:22:35.927Z,0.00
2017-03-26T01:23:29.970Z,0.00
2017-03-26T01:24:23.955Z,0.00
2017-03-26T01:25:18.078Z,0.00
2017-03-26T01:26:13.045Z,0.00
2017-03-26T01:27:02.209Z,0.00
2017-03-26T01:27:51.172Z,0.00
2017-03-26T01:28:52.167Z,0.00
2017-03-26T01:29:46.172Z,0.00
2017-03-26T01:30:40.217Z,0.00
2017-03-26T01:31:34.214Z,0.00
2017-03-26T01:32:34.364Z,0.00
2017-03-26T01:33:23.329Z,0.00
2017-03-26T01:34:11.305Z,0.00
2017-03-26T01:35:00.347Z,0.00
2017-03-26T01:35:54.389Z,0.00
2017-03-26T01:36:43.420Z,0.00
2017-03-26T01:37:38.563Z,0.00
2017-03-26T01:38:32.605Z,0.00
2017-03-26T01:39:32.671Z,0.00
2017-03-26T01:40:32.601Z,0.00
2017-03-26T01:41:21.599Z,0.00
2017-03-26T01:42:15.574Z,0.00
2017-03-26T01:43:10.994Z,0.00
2017-03-26T01:44:04.621Z,0.00
2017-03-26T01:44:52.657Z,0.00
2017-03-26T01:45:53.741Z,0.00
2017-03-26T01:46:42.807Z,0.00
2017-03-26T01:47:36.832Z,0.00
2017-03-26T01:48:25.879Z,0.00
2017-03-26T01:49:25.853Z,0.00
2017-03-26T01:50:25.816Z,0.00
2017-03-26T01:51:20.032Z,0.00
2017-03-26T01:52:19.952Z,0.00
2017-03-26T01:53:14.950Z,0.00
2017-03-26T01:54:09.033Z,0.00
2017-03-26T01:54:58.044Z,0.00
2017-03-26T01:55:47.061Z,0.00
2017-03-26T01:56:41.356Z,0.00
2017-03-26T01:57:36.158Z,0.00
2017-03-26T01:58:30.196Z,0.00
2017-03-26T01:59:25.251Z,0.00
2017-03-26T02:00:19.826Z,0.00
2017-03-26T02:01:07.237Z,0.00
2017-03-26T02:02:07.249Z,0.00
2017-03-26T02:03:01.299Z,0.00
2017-03-26T02:03:55.971Z,0.00
2017-03-26T02:04:44.361Z,0.00
2017-03-26T02:05:32.428Z,0.00
2017-03-26T02:06:27.458Z,0.00
2017-03-26T02:07:21.458Z,0.00
2017-03-26T02:08:16.587Z,0.00
2017-03-26T02:09:16.564Z,0.00
2017-03-26T02:10:11.550Z,0.00
2017-03-26T02:11:11.573Z,0.00
2017-03-26T02:12:06.717Z,0.00
2017-03-26T02:13:01.661Z,0.00
2017-03-26T02:14:01.683Z,0.00
2017-03-26T02:14:56.703Z,0.00
2017-03-26T02:15:51.831Z,0.00
2017-03-26T02:16:45.763Z,0.00
2017-03-26T02:17:40.459Z,0.00
2017-03-26T02:18:34.841Z,0.00
2017-03-26T02:19:28.849Z,0.00
2017-03-26T02:20:16.895Z,0.00
2017-03-26T02:21:12.201Z,0.00
2017-03-26T02:22:11.943Z,0.00
2017-03-26T02:23:01.059Z,0.00
2017-03-26T02:23:54.986Z,0.00
2017-03-26T02:24:44.044Z,0.00
2017-03-26T02:25:38.041Z,0.00
2017-03-26T02:26:38.161Z,0.00
2017-03-26T02:27:38.155Z,0.00
2017-03-26T02:28:33.181Z,0.00
2017-03-26T02:29:28.169Z,0.00
2017-03-26T02:30:28.243Z,0.00
2017-03-26T02:31:22.256Z,0.00
2017-03-26T02:32:28.403Z,0.00
2017-03-26T02:33:28.227Z,0.00
2017-03-26T02:34:23.332Z,0.00
2017-03-26T02:35:17.442Z,0.00
2017-03-26T02:36:18.369Z,0.00
2017-03-26T02:37:12.389Z,0.00
2017-03-26T02:38:06.536Z,0.00
2017-03-26T02:39:01.428Z,0.00
2017-03-26T02:39:55.723Z,0.00
2017-03-26T02:40:50.572Z,0.00
2017-03-26T02:41:50.549Z,0.00
2017-03-26T02:42:45.870Z,0.00
2017-03-26T02:43:45.810Z,0.00
2017-03-26T02:44:45.899Z,0.00
2017-03-26T02:45:40.648Z,0.00
2017-03-26T02:46:35.733Z,0.00
2017-03-26T02:47:30.782Z,0.00
2017-03-26T02:48:25.898Z,0.00
2017-03-26T02:49:19.945Z,0.00
2017-03-26T02:50:13.831Z,0.00
2017-03-26T02:51:14.235Z,0.00
2017-03-26T02:52:08.803Z,0.00
2017-03-26T02:52:57.930Z,0.00
2017-03-26T02:53:51.932Z,0.00
2017-03-26T02:54:46.999Z,0.00
2017-03-26T02:55:42.065Z,0.00
2017-03-26T02:56:42.092Z,0.00
2017-03-26T02:57:37.121Z,0.00
2017-03-26T02:58:31.036Z,0.00
2017-03-26T02:59:26.129Z,0.00
2017-03-26T03:00:21.168Z,0.00
2017-03-26T03:01:15.191Z,0.00
2017-03-26T03:02:15.245Z,0.00
2017-03-26T03:03:15.301Z,0.00
2017-03-26T03:04:10.276Z,0.00
2017-03-26T03:05:04.293Z,0.00
2017-03-26T03:06:04.404Z,0.00
2017-03-26T03:07:00.062Z,0.00
2017-03-26T03:07:54.353Z,0.00
2017-03-26T03:08:54.475Z,0.00
2017-03-26T03:09:49.412Z,0.00
2017-03-26T03:10:44.976Z,0.00
2017-03-26T03:11:45.482Z,0.00
2017-03-26T03:12:45.693Z,0.00
2017-03-26T03:13:34.607Z,0.00
2017-03-26T03:14:34.587Z,0.00
2017-03-26T03:15:29.652Z,0.00
2017-03-26T03:16:24.630Z,0.00
2017-03-26T03:17:24.675Z,0.00
2017-03-26T03:18:19.655Z,0.00
2017-03-26T03:19:13.748Z,0.00
2017-03-26T03:20:08.768Z,0.00
2017-03-26T03:21:03.801Z,0.00
2017-03-26T03:21:57.823Z,0.00
2017-03-26T03:22:53.060Z,0.00
2017-03-26T03:23:46.869Z,0.00
2017-03-26T03:24:47.727Z,0.00
2017-03-26T03:25:40.996Z,0.00
2017-03-26T03:26:47.024Z,0.00
2017-03-26T03:27:40.995Z,0.00
2017-03-26T03:28:41.038Z,0.00
2017-03-26T03:29:36.081Z,0.00
2017-03-26T03:30:36.143Z,0.00
2017-03-26T03:31:31.184Z,0.00
2017-03-26T03:32:26.179Z,0.00
2017-03-26T03:33:27.183Z,0.00
2017-03-26T03:34:22.303Z,0.00
2017-03-26T03:35:11.279Z,0.00
2017-03-26T03:36:05.300Z,0.00
2017-03-26T03:37:00.301Z,0.00
2017-03-26T03:38:00.358Z,0.00
2017-03-26T03:39:00.340Z,0.00
2017-03-26T03:39:55.466Z,0.00
2017-03-26T03:40:50.035Z,0.00
2017-03-26T03:41:50.124Z,0.00
2017-03-26T03:42:44.533Z,0.00
2017-03-26T03:43:44.513Z,0.00
2017-03-26T03:44:38.505Z,0.00
2017-03-26T03:45:32.616Z,0.00
2017-03-26T03:46:27.826Z,0.00
2017-03-26T03:47:21.794Z,0.00
2017-03-26T03:48:10.721Z,0.00
2017-03-26T03:49:10.720Z,0.00
2017-03-26T03:50:05.262Z,0.00
2017-03-26T03:51:04.739Z,0.00
2017-03-26T03:52:04.830Z,0.00
2017-03-26T03:52:59.845Z,0.00
2017-03-26T03:53:53.871Z,0.00
2017-03-26T03:54:53.871Z,0.00
2017-03-26T03:55:49.430Z,0.00
2017-03-26T03:56:42.968Z,0.00
2017-03-26T03:57:43.093Z,0.00
2017-03-26T03:58:43.024Z,0.00
2017-03-26T03:59:38.031Z,0.00
2017-03-26T04:00:33.063Z,0.00
2017-03-26T04:01:34.098Z,0.00
2017-03-26T04:02:34.777Z,0.00
2017-03-26T04:03:34.162Z,0.00
2017-03-26T04:04:34.128Z,0.00
2017-03-26T04:05:34.184Z,0.00
2017-03-26T04:06:29.202Z,0.00
2017-03-26T04:07:18.232Z,0.00
2017-03-26T04:08:13.301Z,0.00
2017-03-26T04:09:14.307Z,0.00
2017-03-26T04:10:08.343Z,0.00
2017-03-26T04:11:08.390Z,0.00
2017-03-26T04:11:57.441Z,0.00
2017-03-26T04:12:53.022Z,0.00
2017-03-26T04:13:53.111Z,0.00
2017-03-26T04:14:46.478Z,0.00
2017-03-26T04:15:47.559Z,0.00
2017-03-26T04:16:48.539Z,0.00
2017-03-26T04:17:42.573Z,0.00
2017-03-26T04:18:42.635Z,0.00
2017-03-26T04:19:37.672Z,0.00
2017-03-26T04:20:37.700Z,0.00
2017-03-26T04:21:32.144Z,0.00
2017-03-26T04:22:32.208Z,0.00
2017-03-26T04:23:25.791Z,0.00
2017-03-26T04:24:26.812Z,0.00
2017-03-26T04:25:20.837Z,0.00
2017-03-26T04:26:09.847Z,0.00
2017-03-26T04:27:09.846Z,0.00
2017-03-26T04:28:03.901Z,0.00
2017-03-26T04:28:57.919Z,0.00
2017-03-26T04:29:52.070Z,0.00
2017-03-26T04:30:52.055Z,0.00
2017-03-26T04:31:46.102Z,0.00
2017-03-26T04:32:46.050Z,0.00
2017-03-26T04:33:41.102Z,0.00
2017-03-26T04:34:36.168Z,0.00
2017-03-26T04:35:36.128Z,0.00
2017-03-26T04:36:31.241Z,0.00
2017-03-26T04:37:25.286Z,0.00
2017-03-26T04:38:25.331Z,0.00
2017-03-26T04:39:25.381Z,0.00
2017-03-26T04:40:19.333Z,0.00
2017-03-26T04:41:25.306Z,0.00
2017-03-26T04:42:19.379Z,0.00
2017-03-26T04:43:19.407Z,0.00
2017-03-26T04:44:19.406Z,0.00
2017-03-26T04:45:09.071Z,0.00
2017-03-26T04:46:03.462Z,0.00
2017-03-26T04:46:52.567Z,0.00
2017-03-26T04:47:47.741Z,0.00
2017-03-26T04:48:47.585Z,0.00
2017-03-26T04:49:47.607Z,0.00
2017-03-26T04:50:42.609Z,0.00
2017-03-26T04:51:36.666Z,0.00
2017-03-26T04:52:30.727Z,0.00
2017-03-26T04:53:25.828Z,0.00
2017-03-26T04:54:14.891Z,0.00
2017-03-26T04:55:09.793Z,0.00
2017-03-26T04:56:09.842Z,0.00
2017-03-26T04:57:03.853Z,0.00
2017-03-26T04:58:09.824Z,0.00
2017-03-26T04:59:09.939Z,0.00
2017-03-26T05:00:10.241Z,0.00
2017-03-26T05:01:16.473Z,0.00
2017-03-26T05:02:11.796Z,0.00
2017-03-26T05:03:06.048Z,0.00
2017-03-26T05:04:06.031Z,0.00
2017-03-26T05:05:01.178Z,0.00
2017-03-26T05:05:56.160Z,0.00
2017-03-26T05:06:56.167Z,0.00
2017-03-26T05:07:51.214Z,0.00
2017-03-26T05:08:46.148Z,0.00
2017-03-26T05:09:47.249Z,0.00
2017-03-26T05:10:42.799Z,0.00
2017-03-26T05:11:36.334Z,0.00
2017-03-26T05:12:30.351Z,0.00
2017-03-26T05:13:30.372Z,0.00
2017-03-26T05:14:24.342Z,0.00
2017-03-26T05:15:18.465Z,0.00
2017-03-26T05:16:07.513Z,0.00
2017-03-26T05:17:02.485Z,0.00
2017-03-26T05:17:57.622Z,0.00
2017-03-26T05:18:58.530Z,0.00
2017-03-26T05:19:58.558Z,0.00
2017-03-26T05:20:46.686Z,0.00
2017-03-26T05:21:35.735Z,0.00
2017-03-26T05:22:35.637Z,0.00
2017-03-26T05:23:24.768Z,0.00
2017-03-26T05:24:19.795Z,0.00
2017-03-26T05:25:19.828Z,0.00
2017-03-26T05:26:14.428Z,0.00
2017-03-26T05:27:14.456Z,0.00
2017-03-26T05:28:07.979Z,0.00
2017-03-26T05:29:07.935Z,0.01
2017-03-26T05:30:07.937Z,0.01
2017-03-26T05:31:08.040Z,0.01
2017-03-26T05:32:02.987Z,0.01
2017-03-26T05:32:58.033Z,0.01
2017-03-26T05:33:52.091Z,0.01
2017-03-26T05:34:52.128Z,0.01
2017-03-26T05:35:46.149Z,0.01
2017-03-26T05:36:41.228Z,0.01
2017-03-26T05:37:41.243Z,0.01
2017-03-26T05:38:36.347Z,0.01
2017-03-26T05:39:36.200Z,0.01
2017-03-26T05:40:31.257Z,0.01
2017-03-26T05:41:26.369Z,0.01
2017-03-26T05:42:20.327Z,0.01
2017-03-26T05:43:20.535Z,0.02
2017-03-26T05:44:15.513Z,0.02
2017-03-26T05:45:10.449Z,0.02
2017-03-26T05:46:10.526Z,0.02
2017-03-26T05:47:04.456Z,0.02
2017-03-26T05:47:59.627Z,0.02
2017-03-26T05:48:54.548Z,0.02
2017-03-26T05:49:55.723Z,0.02
2017-03-26T05:50:50.987Z,0.02
2017-03-26T05:51:51.155Z,0.02
2017-03-26T05:52:50.649Z,0.02
2017-03-26T05:53:50.649Z,0.02
2017-03-26T05:54:51.319Z,0.03
2017-03-26T05:55:50.753Z,0.03
2017-03-26T05:56:50.701Z,0.03
2017-03-26T05:57:44.843Z,0.02
2017-03-26T05:58:38.863Z,0.03
2017-03-26T05:59:33.935Z,0.03
2017-03-26T06:00:33.939Z,0.03
2017-03-26T06:01:23.553Z,0.03
2017-03-26T06:02:24.062Z,0.03
2017-03-26T06:03:25.077Z,0.04
2017-03-26T06:04:25.115Z,0.04
2017-03-26T06:05:25.030Z,0.04
2017-03-26T06:06:25.201Z,0.04
2017-03-26T06:07:20.508Z,0.03
2017-03-26T06:08:20.436Z,0.04
2017-03-26T06:09:15.225Z,0.04
2017-03-26T06:10:10.256Z,0.04
2017-03-26T06:11:04.331Z,0.04
2017-03-26T06:11:59.255Z,0.04
2017-03-26T06:12:53.799Z,0.04
2017-03-26T06:13:53.348Z,0.04
2017-03-26T06:14:48.396Z,0.05
2017-03-26T06:15:37.402Z,0.04
2017-03-26T06:16:32.422Z,0.05
2017-03-26T06:17:27.481Z,0.05
2017-03-26T06:18:27.449Z,0.06
2017-03-26T06:19:23.059Z,0.05
2017-03-26T06:20:16.583Z,0.06
2017-03-26T06:21:16.633Z,0.07
2017-03-26T06:22:16.689Z,0.07
2017-03-26T06:23:16.698Z,0.07
2017-03-26T06:24:10.700Z,0.07
2017-03-26T06:25:10.752Z,0.07
2017-03-26T06:26:05.738Z,0.07
2017-03-26T06:26:59.834Z,0.07
2017-03-26T06:27:59.852Z,0.07
2017-03-26T06:28:54.294Z,0.07
2017-03-26T06:29:54.346Z,0.08
2017-03-26T06:30:47.953Z,0.08
2017-03-26T06:31:48.934Z,0.08
2017-03-26T06:32:50.016Z,0.08
2017-03-26T06:33:44.193Z,0.09
2017-03-26T06:34:38.037Z,0.09
2017-03-26T06:35:38.153Z,0.09
2017-03-26T06:36:33.096Z,0.11
2017-03-26T06:37:27.819Z,0.10
2017-03-26T06:38:27.137Z,0.11
2017-03-26T06:39:21.217Z,0.11
2017-03-26T06:40:16.247Z,0.11
2017-03-26T06:41:17.306Z,0.12
2017-03-26T06:42:17.340Z,0.11
2017-03-26T06:43:17.312Z,0.13
2017-03-26T06:44:11.375Z,0.13
2017-03-26T06:45:11.423Z,0.14
2017-03-26T06:46:06.525Z,0.15
2017-03-26T06:47:01.405Z,0.14
2017-03-26T06:47:50.549Z,0.14
2017-03-26T06:48:45.547Z,0.14
2017-03-26T06:49:45.623Z,0.15
2017-03-26T06:50:40.611Z,0.16
2017-03-26T06:51:35.648Z,0.15
2017-03-26T06:52:30.308Z,0.15
2017-03-26T06:53:31.103Z,0.16
2017-03-26T06:54:25.722Z,0.17
2017-03-26T06:55:25.831Z,0.17
2017-03-26T06:56:25.826Z,0.18
2017-03-26T06:57:25.817Z,0.16
2017-03-26T06:58:25.908Z,0.17
2017-03-26T06:59:25.901Z,0.18
2017-03-26T07:00:25.984Z,0.17
2017-03-26T07:01:25.945Z,0.19
2017-03-26T07:02:26.375Z,0.19
2017-03-26T07:03:26.070Z,0.19
2017-03-26T07:04:26.095Z,0.19
2017-03-26T07:05:21.115Z,0.19
2017-03-26T07:06:16.119Z,0.20
2017-03-26T07:07:11.209Z,0.20
2017-03-26T07:08:05.158Z,0.18
2017-03-26T07:09:00.287Z,0.21
2017-03-26T07:09:54.330Z,0.21
2017-03-26T07:10:49.303Z,0.21
2017-03-26T07:11:50.394Z,0.21
2017-03-26T07:12:51.351Z,0.20
2017-03-26T07:13:52.430Z,0.20
2017-03-26T07:14:41.469Z,0.20
2017-03-26T07:15:36.161Z,0.20
2017-03-26T07:16:36.107Z,0.20
2017-03-26T07:17:36.177Z,0.16
2017-03-26T07:18:35.939Z,0.21
2017-03-26T07:19:36.148Z,0.21
2017-03-26T07:20:35.951Z,0.22
2017-03-26T07:21:35.984Z,0.22
2017-03-26T07:22:29.713Z,0.23
2017-03-26T07:23:18.830Z,0.25
2017-03-26T07:24:08.581Z,0.23
2017-03-26T07:25:02.914Z,0.22
2017-03-26T07:25:56.936Z,0.24
2017-03-26T07:26:56.985Z,0.23
2017-03-26T07:27:46.029Z,0.24
2017-03-26T07:28:40.404Z,0.25
2017-03-26T07:29:40.655Z,0.25
2017-03-26T07:30:34.287Z,0.23
2017-03-26T07:31:35.197Z,0.22
2017-03-26T07:32:35.272Z,0.24
2017-03-26T07:33:35.296Z,0.24
2017-03-26T07:34:29.285Z,0.25
2017-03-26T07:35:29.381Z,0.26
2017-03-26T07:36:24.383Z,0.27
2017-03-26T07:37:19.388Z,0.25
2017-03-26T07:38:13.440Z,0.28
2017-03-26T07:39:13.748Z,0.29
2017-03-26T07:40:09.155Z,0.29
2017-03-26T07:41:03.558Z,0.30
2017-03-26T07:42:03.711Z,0.27
2017-03-26T07:42:58.787Z,0.27
2017-03-26T07:43:53.710Z,0.29
2017-03-26T07:44:47.692Z,0.32
2017-03-26T07:45:43.399Z,0.32
2017-03-26T07:46:43.390Z,0.31
2017-03-26T07:47:37.869Z,0.31
2017-03-26T07:48:32.900Z,0.32
2017-03-26T07:49:26.858Z,0.34
2017-03-26T07:50:26.961Z,0.34
2017-03-26T07:51:26.954Z,0.34
2017-03-26T07:52:27.026Z,0.31
2017-03-26T07:53:27.100Z,0.29
2017-03-26T07:54:27.044Z,0.33
2017-03-26T07:55:27.175Z,0.34
2017-03-26T07:56:27.183Z,0.33
2017-03-26T07:57:27.249Z,0.33
2017-03-26T07:58:27.302Z,0.32
2017-03-26T07:59:27.261Z,0.32
2017-03-26T08:00:27.328Z,0.32
2017-03-26T08:01:21.328Z,0.32
2017-03-26T08:02:10.377Z,0.33
2017-03-26T08:03:04.448Z,0.35
2017-03-26T08:04:04.576Z,0.35
2017-03-26T08:04:53.606Z,0.35
2017-03-26T08:05:48.687Z,0.38
2017-03-26T08:06:42.588Z,0.38
2017-03-26T08:07:42.634Z,0.32
2017-03-26T08:08:37.686Z,0.38
2017-03-26T08:09:31.846Z,0.38
2017-03-26T08:10:31.754Z,0.37
2017-03-26T08:11:26.777Z,0.36
2017-03-26T08:12:21.054Z,0.37
2017-03-26T08:13:21.125Z,0.39
2017-03-26T08:14:14.997Z,0.38
2017-03-26T08:15:15.949Z,0.40
2017-03-26T08:16:10.049Z,0.40
2017-03-26T08:17:05.110Z,0.40
2017-03-26T08:17:59.193Z,0.41
2017-03-26T08:18:53.215Z,0.42
2017-03-26T08:19:47.233Z,0.41
2017-03-26T08:20:42.256Z,0.40
2017-03-26T08:21:42.362Z,0.40
2017-03-26T08:22:36.382Z,0.36
2017-03-26T08:23:36.388Z,0.40
2017-03-26T08:24:24.391Z,0.40
2017-03-26T08:25:24.399Z,0.41
2017-03-26T08:26:18.562Z,0.42
2017-03-26T08:27:18.570Z,0.43
2017-03-26T08:28:12.600Z,0.39
2017-03-26T08:29:12.634Z,0.38
2017-03-26T08:30:06.658Z,0.38
2017-03-26T08:31:07.850Z,0.41
2017-03-26T08:32:07.749Z,0.43
2017-03-26T08:33:02.805Z,0.44
2017-03-26T08:33:56.846Z,0.40
2017-03-26T08:34:52.277Z,0.36
2017-03-26T08:35:45.918Z,0.34
2017-03-26T08:36:46.015Z,0.41
2017-03-26T08:37:40.069Z,0.42
2017-03-26T08:38:40.049Z,0.46
2017-03-26T08:39:35.137Z,0.47
2017-03-26T08:40:30.113Z,0.48
2017-03-26T08:41:18.208Z,0.47
2017-03-26T08:42:18.222Z,0.45
2017-03-26T08:43:13.347Z,0.41
2017-03-26T08:44:02.285Z,0.48
2017-03-26T08:44:57.232Z,0.45
2017-03-26T08:45:51.433Z,0.51
2017-03-26T08:46:46.463Z,0.48
2017-03-26T08:47:35.468Z,0.48
2017-03-26T08:48:30.612Z,0.46
2017-03-26T08:49:30.578Z,0.46
2017-03-26T08:50:25.689Z,0.47
2017-03-26T08:51:20.672Z,0.45
2017-03-26T08:52:14.747Z,0.46
2017-03-26T08:53:14.855Z,0.40
2017-03-26T08:54:09.860Z,0.46
2017-03-26T08:55:03.788Z,0.46
2017-03-26T08:56:03.969Z,0.50
2017-03-26T08:56:58.347Z,0.53
2017-03-26T08:57:59.590Z,0.54
2017-03-26T08:58:52.998Z,0.51
2017-03-26T08:59:48.117Z,0.52
2017-03-26T09:00:48.112Z,0.44
2017-03-26T09:01:43.136Z,0.46
2017-03-26T09:02:38.850Z,0.49
2017-03-26T09:03:27.240Z,0.44
2017-03-26T09:04:22.317Z,0.47
2017-03-26T09:05:17.430Z,0.43
2017-03-26T09:06:18.501Z,0.45
2017-03-26T09:07:12.485Z,0.42
2017-03-26T09:08:06.460Z,0.41
2017-03-26T09:09:06.504Z,0.49
2017-03-26T09:10:00.573Z,0.44
2017-03-26T09:10:49.655Z,0.38
2017-03-26T09:11:49.827Z,0.40
2017-03-26T09:12:44.706Z,0.41
2017-03-26T09:13:39.865Z,0.44
2017-03-26T09:14:39.829Z,0.52
2017-03-26T09:15:34.503Z,0.52
2017-03-26T09:16:28.923Z,0.44
2017-03-26T09:17:23.961Z,0.55
2017-03-26T09:18:19.053Z,0.56
2017-03-26T09:19:19.020Z,0.45
2017-03-26T09:20:14.076Z,0.46
2017-03-26T09:21:14.196Z,0.28
2017-03-26T09:22:08.610Z,0.49
2017-03-26T09:23:08.474Z,0.52
2017-03-26T09:24:08.754Z,0.25
2017-03-26T09:25:08.908Z,0.45
2017-03-26T09:26:09.028Z,0.54
2017-03-26T09:27:09.209Z,0.54
2017-03-26T09:28:02.531Z,0.48
2017-03-26T09:28:57.468Z,0.53
2017-03-26T09:29:57.466Z,0.53
2017-03-26T09:30:52.637Z,0.46
2017-03-26T09:31:47.592Z,0.24
2017-03-26T09:32:42.546Z,0.43
2017-03-26T09:33:42.567Z,0.51
2017-03-26T09:34:35.703Z,0.48
2017-03-26T09:35:35.755Z,0.22
2017-03-26T09:36:30.912Z,0.34
2017-03-26T09:37:30.922Z,0.31
2017-03-26T09:38:25.936Z,0.49
2017-03-26T09:39:19.922Z,0.54
2017-03-26T09:40:19.991Z,0.63
2017-03-26T09:41:14.913Z,0.61
2017-03-26T09:42:14.663Z,0.22
2017-03-26T09:43:03.149Z,0.27
2017-03-26T09:43:57.203Z,0.46
2017-03-26T09:44:57.255Z,0.34
2017-03-26T09:45:52.286Z,0.35
2017-03-26T09:46:47.357Z,0.53
2017-03-26T09:47:42.883Z,0.30
2017-03-26T09:48:44.067Z,0.31
2017-03-26T09:49:44.231Z,0.28
2017-03-26T09:50:38.819Z,0.39
2017-03-26T09:51:27.602Z,0.63
2017-03-26T09:52:22.622Z,0.64
2017-03-26T09:53:17.808Z,0.65
2017-03-26T09:54:11.649Z,0.65
2017-03-26T09:55:05.728Z,0.65
2017-03-26T09:55:59.795Z,0.22
2017-03-26T09:56:53.801Z,0.62
2017-03-26T09:57:48.313Z,0.60
2017-03-26T09:58:48.592Z,0.54
2017-03-26T09:59:36.959Z,0.56
2017-03-26T10:00:31.965Z,0.23
2017-03-26T10:01:32.031Z,0.60
2017-03-26T10:02:21.063Z,0.63
2017-03-26T10:03:15.148Z,0.64
2017-03-26T10:04:10.150Z,0.61
2017-03-26T10:05:10.239Z,0.64
2017-03-26T10:06:05.331Z,0.66
2017-03-26T10:06:59.366Z,0.65
2017-03-26T10:07:59.426Z,0.62
2017-03-26T10:08:54.351Z,0.63
2017-03-26T10:09:55.135Z,0.54
2017-03-26T10:10:54.443Z,0.54
2017-03-26T10:11:54.449Z,0.57
2017-03-26T10:12:49.053Z,0.57
2017-03-26T10:13:42.606Z,0.55
2017-03-26T10:14:42.747Z,0.63
2017-03-26T10:15:42.753Z,0.66
2017-03-26T10:16:36.714Z,0.67
2017-03-26T10:17:31.814Z,0.68
2017-03-26T10:18:31.831Z,0.67
2017-03-26T10:19:27.092Z,0.68
2017-03-26T10:20:22.529Z,0.48
2017-03-26T10:21:15.920Z,0.64
2017-03-26T10:22:16.024Z,0.68
2017-03-26T10:23:10.215Z,0.67
2017-03-26T10:24:11.066Z,0.69
2017-03-26T10:25:12.151Z,0.67
2017-03-26T10:26:06.263Z,0.69
2017-03-26T10:27:06.251Z,0.69
2017-03-26T10:27:55.390Z,0.68
2017-03-26T10:28:55.362Z,0.67
2017-03-26T10:29:55.748Z,0.65
2017-03-26T10:30:44.401Z,0.64
2017-03-26T10:31:38.435Z,0.63
2017-03-26T10:32:33.512Z,0.56
2017-03-26T10:33:33.618Z,0.54
2017-03-26T10:34:28.635Z,0.52
2017-03-26T10:35:24.194Z,0.45
2017-03-26T10:36:24.409Z,0.37
2017-03-26T10:37:17.757Z,0.33
2017-03-26T10:38:18.804Z,0.31
2017-03-26T10:39:18.865Z,0.27
2017-03-26T10:40:12.945Z,0.24
2017-03-26T10:41:06.967Z,0.24
2017-03-26T10:42:02.007Z,0.24
2017-03-26T10:42:57.614Z,0.24
2017-03-26T10:43:57.751Z,0.24
2017-03-26T10:44:52.102Z,0.25
2017-03-26T10:45:40.133Z,0.25
2017-03-26T10:46:35.243Z,0.25
2017-03-26T10:47:29.470Z,0.26
2017-03-26T10:48:23.340Z,0.27
2017-03-26T10:49:12.411Z,0.28
2017-03-26T10:50:07.442Z,0.30
2017-03-26T10:51:08.425Z,0.36
2017-03-26T10:52:03.477Z,0.37
2017-03-26T10:53:03.521Z,0.43
2017-03-26T10:54:03.604Z,0.45
2017-03-26T10:55:03.585Z,0.52
2017-03-26T10:55:59.157Z,0.21
2017-03-26T10:56:53.703Z,0.63
2017-03-26T10:57:53.773Z,0.20
2017-03-26T10:58:48.806Z,0.43
2017-03-26T10:59:42.926Z,0.47
2017-03-26T11:00:42.847Z,0.59
2017-03-26T11:01:37.947Z,0.57
2017-03-26T11:02:37.941Z,0.52
2017-03-26T11:03:38.021Z,0.54
2017-03-26T11:04:38.041Z,0.53
2017-03-26T11:05:26.130Z,0.54
2017-03-26T11:06:20.165Z,0.56
2017-03-26T11:07:08.288Z,0.57
2017-03-26T11:08:04.133Z,0.57
2017-03-26T11:09:04.103Z,0.59
2017-03-26T11:09:57.317Z,0.60
2017-03-26T11:10:57.390Z,0.62
2017-03-26T11:11:52.402Z,0.57
2017-03-26T11:12:47.595Z,0.64
2017-03-26T11:13:41.558Z,0.65
2017-03-26T11:14:42.152Z,0.62
2017-03-26T11:15:36.594Z,0.63
2017-03-26T11:16:30.614Z,0.63
2017-03-26T11:17:30.678Z,0.62
2017-03-26T11:18:19.734Z,0.61
2017-03-26T11:19:14.845Z,0.60
2017-03-26T11:20:14.895Z,0.61
2017-03-26T11:21:10.055Z,0.61
2017-03-26T11:22:04.534Z,0.61
2017-03-26T11:23:04.576Z,0.62
2017-03-26T11:23:58.102Z,0.56
2017-03-26T11:24:59.104Z,0.64
2017-03-26T11:25:54.180Z,0.61
2017-03-26T11:26:48.170Z,0.63
2017-03-26T11:27:42.203Z,0.62
2017-03-26T11:28:42.241Z,0.17
2017-03-26T11:29:38.074Z,0.65
2017-03-26T11:30:33.142Z,0.63
2017-03-26T11:31:26.432Z,0.61
2017-03-26T11:32:20.413Z,0.27
2017-03-26T11:33:14.522Z,0.63
2017-03-26T11:34:14.636Z,0.18
2017-03-26T11:35:03.653Z,0.43
2017-03-26T11:35:58.716Z,0.17
2017-03-26T11:36:52.636Z,0.16
2017-03-26T11:37:47.771Z,0.18
2017-03-26T11:38:42.465Z,0.16
2017-03-26T11:39:41.853Z,0.16
2017-03-26T11:40:37.191Z,0.16
2017-03-26T11:41:31.974Z,0.17
2017-03-26T11:42:26.981Z,0.64
2017-03-26T11:43:26.999Z,0.63
2017-03-26T11:44:22.211Z,0.63
2017-03-26T11:45:16.093Z,0.16
2017-03-26T11:46:16.136Z,0.22
2017-03-26T11:47:12.235Z,0.64
2017-03-26T11:48:06.889Z,0.16
2017-03-26T11:49:06.973Z,0.16
2017-03-26T11:49:55.320Z,0.63
2017-03-26T11:50:55.386Z,0.17
2017-03-26T11:51:50.526Z,0.62
2017-03-26T11:52:45.538Z,0.17
2017-03-26T11:53:46.451Z,0.48
2017-03-26T11:54:34.694Z,0.50
2017-03-26T11:55:34.613Z,0.63
2017-03-26T11:56:29.708Z,0.64
2017-03-26T11:57:18.715Z,0.65
2017-03-26T11:58:13.382Z,0.16
2017-03-26T11:59:12.814Z,0.62
2017-03-26T12:00:07.885Z,0.50
2017-03-26T12:01:01.939Z,0.16
2017-03-26T12:02:02.992Z,0.17
2017-03-26T12:02:57.010Z,0.60
2017-03-26T12:03:51.171Z,0.60
2017-03-26T12:04:45.393Z,0.16
2017-03-26T12:05:39.812Z,0.16
2017-03-26T12:06:39.860Z,0.16
2017-03-26T12:07:27.220Z,0.16
2017-03-26T12:08:27.316Z,0.16
2017-03-26T12:09:22.370Z,0.61
2017-03-26T12:10:16.395Z,0.64
2017-03-26T12:11:16.460Z,0.16
2017-03-26T12:12:11.488Z,0.17
2017-03-26T12:13:06.520Z,0.16
2017-03-26T12:14:06.586Z,0.16
2017-03-26T12:15:01.673Z,0.16
2017-03-26T12:15:56.727Z,0.16
2017-03-26T12:16:50.810Z,0.16
2017-03-26T12:17:50.829Z,0.16
2017-03-26T12:18:46.597Z,0.63
2017-03-26T12:19:41.460Z,0.18
2017-03-26T12:20:41.631Z,0.16
2017-03-26T12:21:35.940Z,0.63
2017-03-26T12:22:31.345Z,0.63
2017-03-26T12:23:25.273Z,0.64
2017-03-26T12:24:25.122Z,0.16
2017-03-26T12:25:20.405Z,0.16